North Pekin, Illinois
Current Conditions -  °F | °C
As of 10:01 AM on Saturday 25 Oct 2014 (Local Time) from KPIA Reporting Station
Moderate Fog Moderate Fog  
Wind Chill: 56°   Ceiling: 200
Heat Index: 56°   Visibility: 0.5mi
Dew Point: 53°   Wind: 6mph
Humidity: 90%   Direction: 280°W
Pressure: 30.02"   Gusts: NA
Location:  40.5452°N, 89.6011°W
Report Text: KPIA 251501Z 28005KT 1/2SM R13/3500VP6000FT FG OVC002 13/12 A3002 RMK AO2 T01330117
Loading
Personal Weather Stations






























Interactive Weather Map
Tropical Storm Tracking
New forecast layout! Learn more

10-Day Weather Forecast

Advertisements
Track Severe Weather on mobile